Time;durP1;ratioP1;P1;durP2;ratioP2;P2;SDS_P1;SDS_P2;PMS_P1;PMS_P2;Temp;Humidity;BMP_temperature;BMP_pressure;BME280_temperature;BME280_humidity;BME280_pressure;Samples;Min_cycle;Max_cycle;Signal;HPM_P1;HPM_P2
2021/09/15 00:00:46;;;;;;;;;;;;;;;24.54;65.22;99207.44;2061208;28;20387;-44
2021/09/15 00:01:46;;;;;;;;;;;;;;;24.54;65.31;99206.59;2059308;28;19917;-43
2021/09/15 00:02:47;;;;;;;;;;;;;;;24.55;65.11;99208.31;2060636;28;19956;-43
2021/09/15 00:03:47;;;;;;;;;;;;;;;24.54;65.23;99210.19;2060628;28;20492;-43
2021/09/15 00:04:47;;;;;;;;;;;;;;;24.54;65.24;99214.84;2057676;28;19921;-44
2021/09/15 00:05:48;;;;;;;;;;;;;;;24.54;65.07;99212.09;2060968;28;20080;-43
2021/09/15 00:06:48;;;;;;;;;;;;;;;24.54;65.27;99212.09;2059398;28;20186;-44
2021/09/15 00:07:48;;;;;;;;;;;;;;;24.53;65.17;99215.91;2061964;28;20133;-44
2021/09/15 00:08:48;;;;;;;;;;;;;;;24.52;65.28;99209.56;2058839;28;20215;-43
2021/09/15 00:09:49;;;;;;;;;;;;;;;24.55;65.01;99213.81;2058088;28;19914;-43
2021/09/15 00:10:50;;;;;;;;;;;;;;;24.53;65.25;99211.25;2059621;28;19917;-43
2021/09/15 00:11:50;;;;;;;;;;;;;;;24.54;65.19;99212.09;2059577;28;20703;-43
2021/09/15 00:12:51;;;;;;;;;;;;;;;24.54;65.35;99212.09;2059812;28;19955;-48
2021/09/15 00:13:51;;;;;;;;;;;;;;;24.54;65.07;99217.59;2059534;28;20231;-48
2021/09/15 00:14:51;;;;;;;;;;;;;;;24.53;65.19;99213.16;2059803;28;19918;-48
2021/09/15 00:15:52;;;;;;;;;;;;;;;24.54;65.27;99220.34;2062484;28;19913;-49
2021/09/15 00:16:52;;;;;;;;;;;;;;;24.54;65.32;99226.72;2059642;28;19924;-48
2021/09/15 00:17:52;;;;;;;;;;;;;;;24.53;65.28;99224.19;2060933;28;19913;-48
2021/09/15 00:18:53;;;;;;;;;;;;;;;24.54;65.23;99223.13;2053238;28;19920;-49
2021/09/15 00:19:53;;;;;;;;;;;;;;;24.54;65.05;99231.38;2056048;28;21030;-49
2021/09/15 00:20:53;;;;;;;;;;;;;;;24.54;65.24;99234.13;2060567;28;19940;-49
2021/09/15 00:21:53;;;;;;;;;;;;;;;24.53;65.19;99233.28;2059848;28;19921;-48
2021/09/15 00:22:54;;;;;;;;;;;;;;;24.54;65.18;99239.66;2061089;28;19913;-48
2021/09/15 00:23:54;;;;;;;;;;;;;;;24.55;65.16;99238.59;2059495;28;19924;-48
2021/09/15 00:24:54;;;;;;;;;;;;;;;24.55;65.10;99241.38;2061088;28;19917;-48
2021/09/15 00:25:54;;;;;;;;;;;;;;;24.54;65.09;99240.50;2060357;28;20572;-48
2021/09/15 00:26:56;;;;;;;;;;;;;;;24.54;65.10;99239.66;2060355;28;19960;-49
2021/09/15 00:27:56;;;;;;;;;;;;;;;24.54;65.19;99239.66;2058958;28;19913;-49
2021/09/15 00:28:56;;;;;;;;;;;;;;;24.54;65.07;99243.25;2058262;28;20316;-48
2021/09/15 00:29:56;;;;;;;;;;;;;;;24.54;65.03;99250.66;2060511;28;19913;-48
2021/09/15 00:30:57;;;;;;;;;;;;;;;24.53;65.17;99255.34;2059481;28;20366;-49
2021/09/15 00:31:57;;;;;;;;;;;;;;;24.54;65.15;99256.19;2060595;28;19913;-49
2021/09/15 00:32:57;;;;;;;;;;;;;;;24.53;65.26;99254.50;2059915;28;19918;-49
2021/09/15 00:33:58;;;;;;;;;;;;;;;24.52;65.26;99244.50;2058562;28;19920;-49
2021/09/15 00:34:58;;;;;;;;;;;;;;;24.53;65.15;99251.72;2061813;28;19920;-48
2021/09/15 00:35:59;;;;;;;;;;;;;;;24.53;65.03;99248.97;2058294;28;19905;-48
2021/09/15 00:36:59;;;;;;;;;;;;;;;24.52;64.95;99245.38;2061359;28;19913;-48
2021/09/15 00:37:59;;;;;;;;;;;;;;;24.53;65.05;99254.50;2058787;28;19940;-48
2021/09/15 00:38:59;;;;;;;;;;;;;;;24.53;65.08;99243.47;2059903;28;20280;-48
2021/09/15 00:40:00;;;;;;;;;;;;;;;24.52;65.04;99250.00;2056319;28;19909;-48
2021/09/15 00:41:00;;;;;;;;;;;;;;;24.52;65.05;99247.25;2058457;28;19932;-49
2021/09/15 00:42:00;;;;;;;;;;;;;;;24.52;65.08;99248.13;2061014;28;19913;-48
2021/09/15 00:43:01;;;;;;;;;;;;;;;24.51;65.12;99246.41;2061510;28;20537;-48
2021/09/15 00:44:04;;;;;;;;;;;;;;;24.51;65.13;99257.44;2060054;28;19917;-48
2021/09/15 00:45:05;;;;;;;;;;;;;;;24.52;65.21;99258.28;2063002;28;19913;-48
2021/09/15 00:46:05;;;;;;;;;;;;;;;24.52;64.99;99258.28;2060191;28;20613;-48
2021/09/15 00:47:05;;;;;;;;;;;;;;;24.51;64.98;99256.59;2059563;28;19917;-49
2021/09/15 00:48:06;;;;;;;;;;;;;;;24.51;65.11;99253.84;2060135;28;20016;-49
2021/09/15 00:49:07;;;;;;;;;;;;;;;24.52;65.10;99258.28;2060840;28;19913;-48
2021/09/15 00:50:08;;;;;;;;;;;;;;;24.51;65.14;99259.34;2060256;28;20164;-49
2021/09/15 00:51:08;;;;;;;;;;;;;;;24.51;65.03;99256.59;2059194;28;19917;-48
2021/09/15 00:52:09;;;;;;;;;;;;;;;24.52;65.08;99261.03;2059739;28;19913;-49
2021/09/15 00:53:09;;;;;;;;;;;;;;;24.52;65.19;99269.31;2059305;28;19952;-48
2021/09/15 00:54:10;;;;;;;;;;;;;;;24.51;65.05;99270.38;2059802;28;19913;-48
2021/09/15 00:55:11;;;;;;;;;;;;;;;24.52;64.97;99266.53;2060714;28;20345;-48
2021/09/15 00:56:11;;;;;;;;;;;;;;;24.52;65.01;99263.78;2058993;28;19917;-48
2021/09/15 00:57:11;;;;;;;;;;;;;;;24.50;65.14;99255.75;2060418;28;20344;-48
2021/09/15 00:58:12;;;;;;;;;;;;;;;24.51;65.04;99267.63;2058138;28;19913;-48
2021/09/15 00:59:12;;;;;;;;;;;;;;;24.51;65.08;99262.09;2059233;28;20220;-48
2021/09/15 01:00:13;;;;;;;;;;;;;;;24.50;65.23;99265.91;2059697;28;19928;-48
2021/09/15 01:01:13;;;;;;;;;;;;;;;24.52;65.03;99266.53;2056900;28;19924;-48
2021/09/15 01:02:13;;;;;;;;;;;;;;;24.51;65.33;99267.63;2060477;28;20347;-48
2021/09/15 01:03:14;;;;;;;;;;;;;;;24.51;65.02;99267.63;2055794;28;20807;-48
2021/09/15 01:04:14;;;;;;;;;;;;;;;24.51;64.94;99267.63;2058180;28;20130;-48
2021/09/15 01:05:14;;;;;;;;;;;;;;;24.51;65.18;99267.63;2059966;28;20248;-49
2021/09/15 01:06:15;;;;;;;;;;;;;;;24.50;65.04;99266.78;2060564;28;19912;-49
2021/09/15 01:07:15;;;;;;;;;;;;;;;24.50;65.03;99271.41;2060270;28;20399;-48
2021/09/15 01:08:15;;;;;;;;;;;;;;;24.50;65.16;99271.41;2058891;28;19921;-48
2021/09/15 01:09:17;;;;;;;;;;;;;;;24.50;65.21;99269.53;2060900;28;19917;-48
2021/09/15 01:10:17;;;;;;;;;;;;;;;24.51;65.02;99273.97;2061739;28;20012;-48
2021/09/15 01:11:18;;;;;;;;;;;;;;;24.51;65.04;99267.63;2061276;28;19913;-48
2021/09/15 01:12:18;;;;;;;;;;;;;;;24.51;65.10;99278.63;2061190;28;19991;-48
2021/09/15 01:13:19;;;;;;;;;;;;;;;24.50;65.19;99272.28;2057749;28;20707;-49
2021/09/15 01:14:20;;;;;;;;;;;;;;;24.51;65.06;99267.63;2060985;28;20259;-49
2021/09/15 01:15:20;;;;;;;;;;;;;;;24.51;65.08;99273.13;2060384;28;19952;-48
2021/09/15 01:16:20;;;;;;;;;;;;;;;24.50;65.03;99274.16;2060134;28;19909;-49
2021/09/15 01:17:21;;;;;;;;;;;;;;;24.50;65.21;99265.91;2061074;28;20263;-48
2021/09/15 01:18:21;;;;;;;;;;;;;;;24.50;65.18;99271.41;2059891;28;20274;-48
2021/09/15 01:19:23;;;;;;;;;;;;;;;24.50;65.28;99276.91;2060754;28;19910;-48
2021/09/15 01:20:23;;;;;;;;;;;;;;;24.49;65.14;99269.72;2057039;28;19921;-49
2021/09/15 01:21:23;;;;;;;;;;;;;;;24.50;65.38;99277.78;2060503;28;20705;-48
2021/09/15 01:22:25;;;;;;;;;;;;;;;24.51;65.02;99278.63;2059673;28;20279;-48
2021/09/15 01:23:26;;;;;;;;;;;;;;;24.50;65.14;99276.91;2060239;28;20357;-48
2021/09/15 01:24:29;;;;;;;;;;;;;;;24.49;65.00;99273.31;2059918;28;19913;-48
2021/09/15 01:25:29;;;;;;;;;;;;;;;24.49;65.03;99269.72;2060322;28;20410;-48
2021/09/15 01:26:33;;;;;;;;;;;;;;;24.50;65.20;99274.16;2060005;28;19913;-49
2021/09/15 01:27:33;;;;;;;;;;;;;;;24.49;65.27;99270.56;2051046;28;20476;-49
2021/09/15 01:28:34;;;;;;;;;;;;;;;24.49;65.27;99269.72;2059416;28;20015;-49
2021/09/15 01:29:34;;;;;;;;;;;;;;;24.49;65.08;99275.22;2060309;28;19913;-48
2021/09/15 01:30:35;;;;;;;;;;;;;;;24.49;65.04;99280.75;2060370;28;19945;-48
2021/09/15 01:31:35;;;;;;;;;;;;;;;24.49;65.24;99281.59;2060045;28;20148;-49
2021/09/15 01:32:35;;;;;;;;;;;;;;;24.49;65.15;99289.84;2059575;28;19956;-48
2021/09/15 01:33:36;;;;;;;;;;;;;;;24.49;65.06;99281.59;2061141;28;19956;-49
2021/09/15 01:34:37;;;;;;;;;;;;;;;24.49;65.06;99280.75;2059060;28;19913;-49
2021/09/15 01:35:38;;;;;;;;;;;;;;;24.49;65.11;99294.50;2058022;28;19921;-48
2021/09/15 01:36:38;;;;;;;;;;;;;;;24.48;65.15;99296.44;2062657;28;20531;-49
2021/09/15 01:37:38;;;;;;;;;;;;;;;24.49;65.04;99305.53;2058780;28;19941;-48
2021/09/15 01:38:39;;;;;;;;;;;;;;;24.49;65.09;99308.28;2058825;28;20458;-49
2021/09/15 01:39:40;;;;;;;;;;;;;;;24.49;65.22;99313.81;2058980;28;20521;-48
2021/09/15 01:40:41;;;;;;;;;;;;;;;24.48;65.16;99312.94;2056780;28;19916;-48
2021/09/15 01:41:41;;;;;;;;;;;;;;;24.50;65.13;99312.72;2058926;28;19924;-48
2021/09/15 01:42:41;;;;;;;;;;;;;;;24.49;64.96;99325.66;2056980;28;20793;-48
2021/09/15 01:43:49;;;;;;;;;;;;;;;24.49;65.19;99327.56;2060286;28;19905;-48
2021/09/15 01:44:49;;;;;;;;;;;;;;;24.49;65.27;99338.59;2059170;28;20059;-48
2021/09/15 01:45:49;;;;;;;;;;;;;;;24.49;65.21;99342.19;2060089;28;19917;-48
2021/09/15 01:46:50;;;;;;;;;;;;;;;24.50;65.20;99354.06;2059847;28;20325;-48
2021/09/15 01:47:51;;;;;;;;;;;;;;;24.49;65.09;99357.88;2060074;28;19940;-48
2021/09/15 01:48:51;;;;;;;;;;;;;;;24.48;65.15;99359.78;2061273;28;19913;-48
2021/09/15 01:49:53;;;;;;;;;;;;;;;24.50;64.88;99367.81;2061743;28;19913;-48
2021/09/15 01:50:53;;;;;;;;;;;;;;;24.50;65.28;99376.09;2061137;28;19905;-48
2021/09/15 01:51:53;;;;;;;;;;;;;;;24.49;65.23;99380.75;2063286;28;19918;-48
2021/09/15 01:52:54;;;;;;;;;;;;;;;24.49;65.08;99401.94;2062431;28;19924;-48
2021/09/15 01:53:54;;;;;;;;;;;;;;;24.49;64.93;99407.47;2060713;28;20271;-49
2021/09/15 01:54:54;;;;;;;;;;;;;;;24.49;65.08;99401.94;2061714;28;19917;-49
2021/09/15 01:55:55;;;;;;;;;;;;;;;24.49;65.24;99407.47;2061025;28;19917;-48
2021/09/15 01:56:55;;;;;;;;;;;;;;;24.48;64.99;99411.28;2060682;28;19913;-49
2021/09/15 01:57:55;;;;;;;;;;;;;;;24.48;65.16;99400.25;2061037;28;19924;-48
2021/09/15 01:58:56;;;;;;;;;;;;;;;24.47;65.21;99404.06;2061201;28;20421;-48
2021/09/15 01:59:57;;;;;;;;;;;;;;;24.47;65.34;99404.06;2061834;28;20075;-48
2021/09/15 02:00:57;;;;;;;;;;;;;;;24.47;65.37;99398.53;2061073;28;19987;-48
2021/09/15 02:01:57;;;;;;;;;;;;;;;24.46;65.32;99400.44;2058758;28;20152;-48
2021/09/15 02:02:58;;;;;;;;;;;;;;;24.46;65.30;99391.34;2057898;28;19929;-48
2021/09/15 02:03:58;;;;;;;;;;;;;;;24.47;65.43;99384.78;2061259;28;20704;-48
2021/09/15 02:04:58;;;;;;;;;;;;;;;24.46;65.38;99391.34;2060809;28;20399;-48
2021/09/15 02:05:59;;;;;;;;;;;;;;;24.46;65.32;99397.69;2061087;28;20400;-49
2021/09/15 02:07:00;;;;;;;;;;;;;;;24.46;65.34;99394.09;2059893;28;20240;-48
2021/09/15 02:08:00;;;;;;;;;;;;;;;24.46;65.37;99397.69;2062012;28;19955;-48
2021/09/15 02:09:00;;;;;;;;;;;;;;;24.46;65.33;99394.09;2062165;28;19964;-49
2021/09/15 02:10:01;;;;;;;;;;;;;;;24.45;65.49;99393.22;2060662;28;19952;-49
2021/09/15 02:11:01;;;;;;;;;;;;;;;24.46;65.33;99396.84;2061362;28;19917;-48
2021/09/15 02:12:01;;;;;;;;;;;;;;;24.46;65.37;99396.84;2061426;28;20573;-48
2021/09/15 02:13:02;;;;;;;;;;;;;;;24.45;65.54;99400.59;2059833;28;19968;-48
2021/09/15 02:14:02;;;;;;;;;;;;;;;24.44;65.33;99405.28;2060652;28;19917;-48
2021/09/15 02:15:03;;;;;;;;;;;;;;;24.45;65.43;99411.63;2058650;28;20013;-48
2021/09/15 02:16:03;;;;;;;;;;;;;;;24.45;65.27;99414.38;2061339;28;20036;-48
2021/09/15 02:17:03;;;;;;;;;;;;;;;24.44;65.27;99404.44;2056735;28;20115;-48
2021/09/15 02:18:04;;;;;;;;;;;;;;;24.45;65.32;99415.25;2058922;28;19972;-48
2021/09/15 02:19:04;;;;;;;;;;;;;;;24.45;65.21;99418.03;2065574;28;19920;-48
2021/09/15 02:20:06;;;;;;;;;;;;;;;24.45;65.15;99420.78;2058450;28;19924;-48
2021/09/15 02:21:06;;;;;;;;;;;;;;;24.45;65.28;99419.91;2060135;28;19914;-48
2021/09/15 02:22:07;;;;;;;;;;;;;;;24.45;65.29;99414.38;2062171;28;19952;-48
2021/09/15 02:23:07;;;;;;;;;;;;;;;24.45;65.19;99422.66;2057984;28;19914;-48
2021/09/15 02:24:08;;;;;;;;;;;;;;;24.44;65.28;99423.72;2060147;28;19959;-48
2021/09/15 02:25:09;;;;;;;;;;;;;;;24.43;65.15;99433.03;2059135;28;19914;-48
2021/09/15 02:26:09;;;;;;;;;;;;;;;24.44;65.14;99431.97;2061809;28;19913;-48
2021/09/15 02:27:09;;;;;;;;;;;;;;;24.45;65.06;99433.66;2064304;28;19966;-48
2021/09/15 02:28:10;;;;;;;;;;;;;;;24.44;65.10;99432.81;2060962;28;19917;-48
2021/09/15 02:29:10;;;;;;;;;;;;;;;24.44;65.29;99432.81;2058617;28;20110;-48
2021/09/15 02:30:10;;;;;;;;;;;;;;;24.44;65.19;99432.81;2059912;28;20493;-48
2021/09/15 02:31:11;;;;;;;;;;;;;;;24.44;65.10;99427.31;2059246;28;20242;-49
2021/09/15 02:32:11;;;;;;;;;;;;;;;24.44;65.11;99437.50;2059621;28;19948;-48
2021/09/15 02:33:11;;;;;;;;;;;;;;;24.44;65.01;99430.06;2061105;28;20369;-48
2021/09/15 02:34:12;;;;;;;;;;;;;;;24.44;65.14;99429.22;2058418;28;20262;-48
2021/09/15 02:35:12;;;;;;;;;;;;;;;24.44;65.05;99434.72;2061368;28;19948;-48
2021/09/15 02:36:13;;;;;;;;;;;;;;;24.44;65.09;99434.72;2061385;28;19936;-48
2021/09/15 02:37:13;;;;;;;;;;;;;;;24.43;65.04;99428.38;2064659;28;20338;-48
2021/09/15 02:38:14;;;;;;;;;;;;;;;24.44;65.04;99426.47;2061561;28;20325;-48
2021/09/15 02:39:14;;;;;;;;;;;;;;;24.44;64.98;99431.97;2060567;28;19964;-49
2021/09/15 02:40:14;;;;;;;;;;;;;;;24.42;65.03;99423.06;2061257;28;20256;-48
2021/09/15 02:41:14;;;;;;;;;;;;;;;24.44;65.21;99420.97;2058850;28;19924;-48
2021/09/15 02:42:15;;;;;;;;;;;;;;;24.43;65.10;99419.28;2059281;28;20885;-49
2021/09/15 02:43:15;;;;;;;;;;;;;;;24.43;65.00;99424.78;2060223;28;19953;-48
2021/09/15 02:44:15;;;;;;;;;;;;;;;24.42;64.94;99412.88;2057506;28;20023;-49
2021/09/15 02:45:15;;;;;;;;;;;;;;;24.42;65.07;99418.41;2061389;28;20353;-48
2021/09/15 02:46:16;;;;;;;;;;;;;;;24.42;65.13;99418.41;2065008;28;19916;-48
2021/09/15 02:47:16;;;;;;;;;;;;;;;24.42;65.04;99420.31;2066178;28;19940;-48
2021/09/15 02:48:17;;;;;;;;;;;;;;;24.42;64.93;99423.06;2060272;28;19920;-48
2021/09/15 02:49:17;;;;;;;;;;;;;;;24.44;64.80;99423.72;2059805;28;19917;-49
2021/09/15 02:50:17;;;;;;;;;;;;;;;24.42;65.09;99417.56;2062944;28;19920;-48
2021/09/15 02:51:18;;;;;;;;;;;;;;;24.42;64.96;99423.06;2061334;28;19917;-48
2021/09/15 02:52:18;;;;;;;;;;;;;;;24.42;64.99;99421.16;2061805;28;20201;-48
2021/09/15 02:53:18;;;;;;;;;;;;;;;24.42;64.85;99420.31;2061139;28;20056;-48
2021/09/15 02:54:19;;;;;;;;;;;;;;;24.42;64.87;99431.31;2059944;28;19924;-48
2021/09/15 02:55:19;;;;;;;;;;;;;;;24.42;64.95;99423.06;2059950;28;19913;-48
2021/09/15 02:56:19;;;;;;;;;;;;;;;24.42;64.89;99425.81;2059975;28;20238;-48
2021/09/15 02:57:20;;;;;;;;;;;;;;;24.42;64.93;99425.81;2061192;28;19914;-48
2021/09/15 02:58:20;;;;;;;;;;;;;;;24.42;64.79;99423.06;2057358;28;20263;-48
2021/09/15 02:59:20;;;;;;;;;;;;;;;24.42;64.74;99420.31;2060492;28;20210;-48
2021/09/15 03:00:21;;;;;;;;;;;;;;;24.42;64.92;99414.78;2054102;28;19926;-48
2021/09/15 03:01:21;;;;;;;;;;;;;;;24.41;64.71;99416.72;2053065;28;19921;-48
2021/09/15 03:02:21;;;;;;;;;;;;;;;24.41;64.78;99410.34;2061368;28;20467;-49
2021/09/15 03:03:21;;;;;;;;;;;;;;;24.39;64.78;99419.66;2057920;28;19924;-48
2021/09/15 03:04:22;;;;;;;;;;;;;;;24.41;64.85;99415.88;2061821;28;20550;-49
2021/09/15 03:05:22;;;;;;;;;;;;;;;24.39;64.86;99422.41;2062154;28;19928;-44
2021/09/15 03:06:22;;;;;;;;;;;;;;;24.40;64.88;99420.53;2063245;28;20122;-44
2021/09/15 03:07:23;;;;;;;;;;;;;;;24.39;64.77;99425.16;2060987;28;19913;-44
2021/09/15 03:08:23;;;;;;;;;;;;;;;24.39;64.91;99427.91;2059421;28;20595;-44
2021/09/15 03:09:23;;;;;;;;;;;;;;;24.40;64.69;99428.78;2060809;28;19921;-44
2021/09/15 03:10:24;;;;;;;;;;;;;;;24.41;64.90;99432.38;2059257;28;19914;-43
2021/09/15 03:11:24;;;;;;;;;;;;;;;24.39;64.67;99435.34;2054956;28;20209;-43
2021/09/15 03:12:24;;;;;;;;;;;;;;;24.39;64.76;99441.69;2060149;28;19924;-44
2021/09/15 03:13:25;;;;;;;;;;;;;;;24.39;64.60;99435.34;2059874;28;19918;-42
2021/09/15 03:14:25;;;;;;;;;;;;;;;24.39;64.66;99436.19;2061903;28;20518;-43
2021/09/15 03:15:25;;;;;;;;;;;;;;;24.39;64.61;99429.81;2061553;28;20779;-43
2021/09/15 03:16:26;;;;;;;;;;;;;;;24.39;64.56;99438.94;2056294;28;19976;-43
2021/09/15 03:17:26;;;;;;;;;;;;;;;24.39;64.71;99435.34;2060634;28;19913;-43
2021/09/15 03:18:26;;;;;;;;;;;;;;;24.38;64.76;99434.50;2056367;28;20607;-43
2021/09/15 03:19:26;;;;;;;;;;;;;;;24.38;64.56;99423.47;2061642;28;19987;-43
2021/09/15 03:20:27;;;;;;;;;;;;;;;24.38;64.60;99428.97;2058946;28;19979;-44
2021/09/15 03:21:27;;;;;;;;;;;;;;;24.39;64.68;99438.94;2062233;28;20012;-47
2021/09/15 03:22:27;;;;;;;;;;;;;;;24.38;64.67;99431.72;2060007;28;20413;-44
2021/09/15 03:23:27;;;;;;;;;;;;;;;24.38;64.61;99436.41;2061827;28;19918;-44
2021/09/15 03:24:28;;;;;;;;;;;;;;;24.37;64.77;99427.25;2060048;28;19913;-43
2021/09/15 03:25:28;;;;;;;;;;;;;;;24.37;64.60;99432.75;2060258;28;19976;-43
2021/09/15 03:26:28;;;;;;;;;;;;;;;24.38;64.62;99434.50;2055947;28;20336;-43
2021/09/15 03:27:29;;;;;;;;;;;;;;;24.38;64.47;99437.25;2060208;28;19951;-45
2021/09/15 03:28:29;;;;;;;;;;;;;;;24.38;64.63;99433.66;2061588;28;19921;-43
2021/09/15 03:29:30;;;;;;;;;;;;;;;24.37;64.68;99438.28;2057306;28;19913;-44
2021/09/15 03:30:31;;;;;;;;;;;;;;;24.37;64.61;99437.44;2059383;28;19925;-42
2021/09/15 03:31:31;;;;;;;;;;;;;;;24.37;64.59;99442.94;2056258;28;19913;-43
2021/09/15 03:32:32;;;;;;;;;;;;;;;24.36;64.62;99436.59;2055389;28;19921;-43
2021/09/15 03:33:32;;;;;;;;;;;;;;;24.38;64.61;99447.41;2054063;28;20296;-43
2021/09/15 03:34:33;;;;;;;;;;;;;;;24.38;64.67;99448.25;2056739;28;20530;-43
2021/09/15 03:35:33;;;;;;;;;;;;;;;24.37;64.48;99449.28;2057814;28;20319;-43
2021/09/15 03:36:34;;;;;;;;;;;;;;;24.37;64.53;99448.44;2057079;28;19910;-43
2021/09/15 03:37:34;;;;;;;;;;;;;;;24.37;64.53;99454.81;2057954;28;19939;-43
2021/09/15 03:38:35;;;;;;;;;;;;;;;24.37;64.60;99460.31;2061316;28;19952;-41
2021/09/15 03:39:35;;;;;;;;;;;;;;;24.36;64.61;99450.34;2060428;28;19917;-43
2021/09/15 03:40:36;;;;;;;;;;;;;;;24.37;64.40;99457.56;2058382;28;19913;-43
2021/09/15 03:41:36;;;;;;;;;;;;;;;24.38;64.41;99450.16;2061347;28;20401;-43
2021/09/15 03:42:36;;;;;;;;;;;;;;;24.38;64.60;99450.16;2060808;28;19925;-45
2021/09/15 03:43:37;;;;;;;;;;;;;;;24.36;64.56;99452.28;2060602;28;20482;-44
2021/09/15 03:44:37;;;;;;;;;;;;;;;24.36;64.38;99447.59;2060789;28;20355;-43
2021/09/15 03:45:38;;;;;;;;;;;;;;;24.37;64.49;99445.69;2061428;28;19980;-43
2021/09/15 03:46:38;;;;;;;;;;;;;;;24.36;64.72;99442.09;2059897;28;20729;-42
2021/09/15 03:47:38;;;;;;;;;;;;;;;24.36;64.62;99442.09;2060996;28;20011;-43
2021/09/15 03:48:38;;;;;;;;;;;;;;;24.37;64.47;99448.44;2062146;28;19941;-43
2021/09/15 03:49:39;;;;;;;;;;;;;;;24.37;64.60;99449.28;2060451;28;19914;-43
2021/09/15 03:50:39;;;;;;;;;;;;;;;24.37;64.52;99446.53;2060541;28;20137;-43
2021/09/15 03:51:39;;;;;;;;;;;;;;;24.37;64.53;99451.19;2061290;28;19917;-42
2021/09/15 03:52:40;;;;;;;;;;;;;;;24.36;64.44;99444.84;2061273;28;19913;-44
2021/09/15 03:53:40;;;;;;;;;;;;;;;24.36;64.44;99442.09;2061732;28;20235;-43
2021/09/15 03:54:41;;;;;;;;;;;;;;;24.36;64.50;99442.09;2059610;28;19917;-44
2021/09/15 03:55:41;;;;;;;;;;;;;;;24.35;64.63;99443.16;2060711;28;20178;-43
2021/09/15 03:56:41;;;;;;;;;;;;;;;24.35;64.57;99440.41;2060654;28;19917;-47
2021/09/15 03:57:42;;;;;;;;;;;;;;;24.35;64.49;99443.16;2059627;28;20227;-44
2021/09/15 03:58:42;;;;;;;;;;;;;;;24.35;64.55;99437.66;2061799;28;19917;-44
2021/09/15 03:59:42;;;;;;;;;;;;;;;24.35;64.59;99432.16;2060392;28;19921;-43
2021/09/15 04:00:42;;;;;;;;;;;;;;;24.35;64.42;99429.38;2059118;28;20428;-44
2021/09/15 04:01:43;;;;;;;;;;;;;;;24.34;64.52;99424.91;2061186;28;20599;-43
2021/09/15 04:02:43;;;;;;;;;;;;;;;24.34;64.45;99416.66;2060341;28;19988;-45
2021/09/15 04:03:43;;;;;;;;;;;;;;;24.34;64.67;99419.41;2061197;28;19909;-45
2021/09/15 04:04:44;;;;;;;;;;;;;;;24.34;64.43;99405.63;2061506;28;19913;-43
2021/09/15 04:05:44;;;;;;;;;;;;;;;24.35;64.55;99415.63;2060697;28;19913;-44
2021/09/15 04:06:44;;;;;;;;;;;;;;;24.34;64.53;99413.91;2061566;28;20228;-43
2021/09/15 04:07:44;;;;;;;;;;;;;;;24.33;64.46;99409.44;2059289;28;19913;-43
2021/09/15 04:08:45;;;;;;;;;;;;;;;24.34;64.42;99405.63;2061106;28;20504;-43
2021/09/15 04:09:45;;;;;;;;;;;;;;;24.35;64.54;99410.09;2059904;28;20011;-43
2021/09/15 04:10:45;;;;;;;;;;;;;;;24.35;64.35;99412.00;2059732;28;19921;-44
2021/09/15 04:11:46;;;;;;;;;;;;;;;24.34;64.51;99416.66;2059734;28;20295;-43
2021/09/15 04:12:46;;;;;;;;;;;;;;;24.34;64.37;99416.66;2059257;28;20021;-43
2021/09/15 04:13:46;;;;;;;;;;;;;;;24.34;64.59;99422.16;2061209;28;20012;-47
2021/09/15 04:14:46;;;;;;;;;;;;;;;24.34;64.41;99424.91;2059570;28;19944;-44
2021/09/15 04:15:47;;;;;;;;;;;;;;;24.35;64.43;99426.63;2058376;28;19918;-43
2021/09/15 04:16:47;;;;;;;;;;;;;;;24.35;64.39;99428.50;2058633;28;19976;-44
2021/09/15 04:17:48;;;;;;;;;;;;;;;24.34;64.43;99433.19;2062013;28;19924;-44
2021/09/15 04:18:48;;;;;;;;;;;;;;;24.34;64.44;99438.69;2060732;28;19992;-48
2021/09/15 04:19:48;;;;;;;;;;;;;;;24.34;64.30;99432.34;2059999;28;20383;-48
2021/09/15 04:20:49;;;;;;;;;;;;;;;24.35;64.25;99439.53;2060625;28;19960;-48
2021/09/15 04:21:49;;;;;;;;;;;;;;;24.35;64.36;99436.78;2061526;28;19953;-48
2021/09/15 04:22:50;;;;;;;;;;;;;;;24.34;64.41;99432.34;2061052;28;19963;-48
2021/09/15 04:31:59;;;;;;;;;;;;;;;24.33;64.34;99434.25;2060290;28;20422;-48
2021/09/15 04:33:00;;;;;;;;;;;;;;;24.33;64.38;99431.50;2059851;28;19917;-49
2021/09/15 04:34:01;;;;;;;;;;;;;;;24.33;64.18;99428.72;2059472;28;20250;-48
2021/09/15 04:35:01;;;;;;;;;;;;;;;24.32;64.43;99423.41;2061286;28;19913;-48
2021/09/15 04:36:02;;;;;;;;;;;;;;;24.33;64.23;99425.97;2060344;28;19953;-49
2021/09/15 04:37:02;;;;;;;;;;;;;;;24.32;64.24;99418.75;2061440;28;19917;-48
2021/09/15 04:38:03;;;;;;;;;;;;;;;24.32;64.29;99416.00;2060473;28;19920;-49
2021/09/15 04:39:03;;;;;;;;;;;;;;;24.32;64.35;99413.25;2061006;28;19917;-48
2021/09/15 04:40:04;;;;;;;;;;;;;;;24.32;64.35;99424.25;2060327;28;19924;-48
2021/09/15 04:41:04;;;;;;;;;;;;;;;24.33;64.33;99419.63;2060722;28;19959;-49
2021/09/15 04:42:04;;;;;;;;;;;;;;;24.32;64.32;99417.91;2059942;28;19913;-49
2021/09/15 04:43:05;;;;;;;;;;;;;;;24.32;64.35;99421.50;2060477;28;20204;-48
2021/09/15 04:44:05;;;;;;;;;;;;;;;24.32;64.28;99417.91;2060996;28;19913;-44
2021/09/15 04:45:05;;;;;;;;;;;;;;;24.31;64.25;99417.06;2060391;28;19913;-43
2021/09/15 04:46:06;;;;;;;;;;;;;;;24.32;64.43;99417.91;2058731;28;19924;-43
2021/09/15 04:47:06;;;;;;;;;;;;;;;24.32;64.30;99424.25;2061469;28;19917;-43
2021/09/15 04:48:07;;;;;;;;;;;;;;;24.32;64.32;99410.50;2057363;28;20347;-47
2021/09/15 04:49:07;;;;;;;;;;;;;;;24.32;64.41;99413.25;2060355;28;19971;-43
2021/09/15 04:50:08;;;;;;;;;;;;;;;24.32;64.18;99413.25;2059477;28;19917;-43
2021/09/15 04:51:08;;;;;;;;;;;;;;;24.31;64.25;99406.03;2059895;28;19920;-43
2021/09/15 04:52:08;;;;;;;;;;;;;;;24.31;64.28;99410.72;2060214;28;20316;-43
2021/09/15 04:53:09;;;;;;;;;;;;;;;24.31;64.23;99405.19;2060860;28;20559;-44
2021/09/15 04:54:09;;;;;;;;;;;;;;;24.31;64.32;99410.72;2059542;28;19955;-44
2021/09/15 04:55:09;;;;;;;;;;;;;;;24.31;64.43;99405.19;2059447;28;19912;-43
2021/09/15 04:56:10;;;;;;;;;;;;;;;24.31;64.25;99408.81;2061172;28;19911;-42
2021/09/15 04:57:10;;;;;;;;;;;;;;;24.31;64.15;99405.19;2058608;28;19917;-43
2021/09/15 04:58:10;;;;;;;;;;;;;;;24.31;64.26;99411.56;2062336;28;19906;-43
2021/09/15 04:59:11;;;;;;;;;;;;;;;24.30;64.22;99420.88;2060264;28;20291;-44
2021/09/15 05:00:11;;;;;;;;;;;;;;;24.30;64.15;99418.13;2059395;28;19922;-43
2021/09/15 05:01:11;;;;;;;;;;;;;;;24.29;64.08;99421.91;2058617;28;19933;-43
2021/09/15 05:02:12;;;;;;;;;;;;;;;24.30;64.15;99437.41;2061199;28;19909;-43
2021/09/15 05:03:12;;;;;;;;;;;;;;;24.31;64.14;99433.59;2056566;28;19925;-43
2021/09/15 05:04:13;;;;;;;;;;;;;;;24.31;64.20;99430.00;2058838;28;20637;-43
2021/09/15 05:05:13;;;;;;;;;;;;;;;24.31;64.10;99428.06;2061736;28;19906;-43
2021/09/15 05:06:13;;;;;;;;;;;;;;;24.30;64.26;99426.38;2058637;28;19921;-44
2021/09/15 05:07:14;;;;;;;;;;;;;;;24.31;64.29;99422.56;2060358;28;19917;-43
2021/09/15 05:08:14;;;;;;;;;;;;;;;24.31;64.13;99422.56;2065658;28;19905;-44
2021/09/15 05:09:15;;;;;;;;;;;;;;;24.30;64.01;99418.13;2066940;28;20762;-44
2021/09/15 05:10:15;;;;;;;;;;;;;;;24.31;64.02;99413.47;2061180;28;20004;-43
2021/09/15 05:11:15;;;;;;;;;;;;;;;24.31;64.18;99418.97;2058144;28;19906;-45
2021/09/15 05:12:16;;;;;;;;;;;;;;;24.30;64.09;99412.63;2057935;28;19917;-44
2021/09/15 05:13:16;;;;;;;;;;;;;;;24.29;64.06;99416.41;2054730;28;19996;-43
2021/09/15 05:14:16;;;;;;;;;;;;;;;24.31;63.93;99421.72;2061041;28;19924;-44
2021/09/15 05:15:16;;;;;;;;;;;;;;;24.29;63.99;99413.66;2060105;28;19936;-43
2021/09/15 05:16:17;;;;;;;;;;;;;;;24.30;64.16;99414.50;2060794;28;20276;-43
2021/09/15 05:17:17;;;;;;;;;;;;;;;24.30;64.13;99420.88;2059992;28;19917;-43
2021/09/15 05:18:17;;;;;;;;;;;;;;;24.30;64.04;99415.38;2058294;28;19966;-43
2021/09/15 05:19:18;;;;;;;;;;;;;;;24.30;64.17;99415.38;2057407;28;19920;-44
2021/09/15 05:20:19;;;;;;;;;;;;;;;24.30;64.07;99409.00;2057316;28;20796;-44
2021/09/15 05:21:19;;;;;;;;;;;;;;;24.30;64.01;99409.88;2061237;28;19921;-44
2021/09/15 05:22:19;;;;;;;;;;;;;;;24.30;64.17;99409.88;2057446;28;19929;-44
2021/09/15 05:23:20;;;;;;;;;;;;;;;24.29;64.26;99402.63;2059133;28;19914;-43